Time;durP1;ratioP1;P1;durP2;ratioP2;P2;SDS_P1;SDS_P2;PMS_P1;PMS_P2;Temp;Humidity;BMP_temperature;BMP_pressure;BME280_temperature;BME280_humidity;BME280_pressure;Samples;Min_cycle;Max_cycle;Signal;HPM_P1;HPM_P2
2024/02/14 00:00:50;;;;;;;22.40;16.30;;;;;;;8.30;99.46;99277.24;105767;1253;61740;-74
2024/02/14 00:03:17;;;;;;;21.90;16.70;;;;;;;8.31;99.94;99279.61;105828;1253;60549;-74
2024/02/14 00:05:44;;;;;;;18.90;15.30;;;;;;;8.37;100.00;99285.67;105690;1254;73849;-74
2024/02/14 00:08:13;;;;;;;21.20;16.40;;;;;;;8.41;100.00;99293.14;105898;1253;70039;-73
2024/02/14 00:10:40;;;;;;;18.90;15.00;;;;;;;8.42;100.00;99290.54;105708;1255;71425;-74
2024/02/14 00:13:08;;;;;;;19.10;14.90;;;;;;;8.43;100.00;99297.91;105736;1254;62077;-74
2024/02/14 00:15:36;;;;;;;18.30;14.20;;;;;;;8.43;100.00;99300.86;105917;1254;60951;-76
2024/02/14 00:18:03;;;;;;;19.90;15.30;;;;;;;8.42;100.00;99305.95;106078;1256;73491;-74
2024/02/14 00:20:30;;;;;;;19.20;15.30;;;;;;;8.45;100.00;99305.95;105852;1254;70347;-75
2024/02/14 00:22:58;;;;;;;18.30;15.10;;;;;;;8.48;100.00;99308.45;107080;1253;72548;-72
2024/02/14 00:25:24;;;;;;;17.70;14.30;;;;;;;8.53;100.00;99309.73;107989;1253;60447;-74
2024/02/14 00:27:51;;;;;;;21.10;16.50;;;;;;;8.54;100.00;99311.16;107048;1254;59807;-76
2024/02/14 00:30:19;;;;;;;19.50;14.30;;;;;;;8.53;100.00;99305.27;105874;1253;73908;-75
2024/02/14 00:32:45;;;;;;;18.10;14.10;;;;;;;8.54;100.00;99305.17;105899;1253;70289;-73
2024/02/14 00:35:12;;;;;;;17.30;13.60;;;;;;;8.52;100.00;99307.48;105716;1254;72466;-74
2024/02/14 00:37:39;;;;;;;20.20;14.90;;;;;;;8.52;100.00;99304.89;105754;1254;60486;-74
2024/02/14 00:40:07;;;;;;;15.60;12.20;;;;;;;8.49;100.00;99304.02;105813;1254;60443;-73
2024/02/14 00:42:34;;;;;;;15.00;12.80;;;;;;;8.47;100.00;99306.50;105842;1255;73850;-75
2024/02/14 00:45:00;;;;;;;16.90;12.00;;;;;;;8.46;100.00;99308.19;105856;1253;70292;-75
2024/02/14 00:47:28;;;;;;;12.50;10.70;;;;;;;8.45;100.00;99308.65;105741;1254;72663;-73
2024/02/14 00:49:54;;;;;;;16.20;11.40;;;;;;;8.45;100.00;99310.55;105836;1253;60573;-73
2024/02/14 00:52:21;;;;;;;11.70;9.40;;;;;;;8.43;100.00;99312.52;105799;1256;60365;-75
2024/02/14 00:54:48;;;;;;;10.80;8.10;;;;;;;8.41;100.00;99311.11;105833;1254;73520;-74
2024/02/14 00:57:15;;;;;;;8.60;7.70;;;;;;;8.38;100.00;99309.20;105795;1257;68976;-76
2024/02/14 00:59:42;;;;;;;10.60;8.20;;;;;;;8.37;100.00;99310.36;106079;1253;72411;-74
2024/02/14 01:02:09;;;;;;;8.70;7.80;;;;;;;8.31;100.00;99311.28;105808;1254;60483;-75
2024/02/14 01:04:37;;;;;;;10.20;7.60;;;;;;;8.24;100.00;99309.22;105845;1254;60359;-75
2024/02/14 01:07:04;;;;;;;8.10;7.30;;;;;;;8.17;100.00;99307.72;105976;1253;73724;-74
2024/02/14 01:09:31;;;;;;;9.20;7.40;;;;;;;8.08;100.00;99309.36;105834;1253;70595;-74
2024/02/14 01:11:59;;;;;;;9.60;7.70;;;;;;;8.02;100.00;99307.10;105833;1254;72559;-74
2024/02/14 01:14:26;;;;;;;10.40;7.50;;;;;;;8.01;100.00;99302.11;105388;1253;60521;-73
2024/02/14 01:16:53;;;;;;;9.80;7.30;;;;;;;7.98;100.00;99301.48;105744;1253;60525;-75
2024/02/14 01:19:20;;;;;;;10.10;7.90;;;;;;;7.99;100.00;99299.21;106106;1253;74025;-75
2024/02/14 01:21:48;;;;;;;10.40;7.80;;;;;;;7.99;100.00;99300.91;106872;1254;69206;-73
2024/02/14 01:24:16;;;;;;;10.40;8.20;;;;;;;8.01;100.00;99298.77;107106;1254;71145;-74
2024/02/14 01:26:43;;;;;;;10.70;8.40;;;;;;;8.00;100.00;99294.30;106192;1253;60490;-74
2024/02/14 01:29:09;;;;;;;9.20;8.00;;;;;;;7.96;100.00;99292.56;105904;1253;60444;-74
2024/02/14 01:31:37;;;;;;;9.80;7.80;;;;;;;7.96;100.00;99293.98;105811;1254;73611;-74
2024/02/14 01:34:03;;;;;;;9.70;7.90;;;;;;;7.99;100.00;99286.14;105782;1253;70071;-74
2024/02/14 01:36:30;;;;;;;10.90;8.30;;;;;;;8.00;100.00;99283.73;105786;1253;71229;-74
2024/02/14 01:38:57;;;;;;;8.90;6.80;;;;;;;8.01;100.00;99279.36;105558;1253;60535;-73
2024/02/14 01:41:24;;;;;;;9.30;7.20;;;;;;;7.99;100.00;99282.40;105870;1253;60541;-74
2024/02/14 01:43:51;;;;;;;8.60;7.00;;;;;;;7.94;100.00;99285.27;105806;1257;72571;-74
2024/02/14 01:46:18;;;;;;;6.60;5.80;;;;;;;7.92;100.00;99284.92;105713;1253;69637;-73
2024/02/14 01:48:44;;;;;;;6.30;5.60;;;;;;;7.89;100.00;99289.71;105722;1253;71592;-74
2024/02/14 01:51:11;;;;;;;7.50;5.70;;;;;;;7.88;100.00;99288.16;105770;1254;62041;-73
2024/02/14 01:53:38;;;;;;;7.80;6.10;;;;;;;7.90;100.00;99287.80;105758;1258;60540;-75
2024/02/14 01:56:05;;;;;;;5.60;4.50;;;;;;;7.88;100.00;99284.70;105882;1253;73813;-74
2024/02/14 01:58:33;;;;;;;6.00;5.20;;;;;;;7.88;100.00;99290.31;105829;1253;70345;-73
2024/02/14 02:01:00;;;;;;;5.30;4.80;;;;;;;7.88;100.00;99290.45;105811;1253;72761;-74
2024/02/14 02:03:27;;;;;;;5.00;4.50;;;;;;;7.90;100.00;99290.64;105933;1254;60566;-74
2024/02/14 02:05:54;;;;;;;6.20;5.60;;;;;;;7.92;100.00;99295.39;105877;1254;60575;-73
2024/02/14 02:08:21;;;;;;;5.60;4.90;;;;;;;7.92;100.00;99298.55;105950;1258;73799;-74
2024/02/14 02:10:48;;;;;;;6.70;6.00;;;;;;;7.94;100.00;99301.13;106267;1253;68872;-75
2024/02/14 02:13:15;;;;;;;6.50;5.80;;;;;;;7.95;100.00;99303.67;106377;1253;72418;-73
2024/02/14 02:15:44;;;;;;;8.20;6.60;;;;;;;7.97;100.00;99305.04;105652;1257;60541;-73
2024/02/14 02:18:11;;;;;;;8.20;6.40;;;;;;;7.97;100.00;99306.95;105831;1255;60336;-74
2024/02/14 02:20:38;;;;;;;6.20;5.60;;;;;;;7.98;100.00;99307.89;106086;1257;73364;-74
2024/02/14 02:23:05;;;;;;;6.30;5.20;;;;;;;7.96;100.00;99304.60;106550;1255;68785;-72
2024/02/14 02:25:31;;;;;;;6.20;5.30;;;;;;;7.96;100.00;99309.34;106103;1254;72452;-73
2024/02/14 02:27:58;;;;;;;5.90;5.30;;;;;;;7.94;100.00;99312.27;105821;1255;60452;-73
2024/02/14 02:30:25;;;;;;;9.20;6.80;;;;;;;7.92;100.00;99315.64;105859;1253;60554;-74
2024/02/14 02:32:52;;;;;;;7.00;5.90;;;;;;;7.88;100.00;99311.43;105839;1255;73851;-74
2024/02/14 02:35:21;;;;;;;4.90;4.40;;;;;;;7.84;100.00;99316.48;106036;1257;70479;-73
2024/02/14 02:37:50;;;;;;;5.90;5.00;;;;;;;7.81;100.00;99314.32;105678;1253;72554;-73
2024/02/14 02:40:17;;;;;;;5.00;4.50;;;;;;;7.77;100.00;99322.60;105927;1253;61793;-74
2024/02/14 02:42:47;;;;;;;5.30;4.80;;;;;;;7.75;100.00;99331.73;105742;1253;60685;-74
2024/02/14 02:45:13;;;;;;;8.10;5.30;;;;;;;7.72;100.00;99335.68;105839;1253;72894;-76
2024/02/14 02:47:40;;;;;;;7.50;5.40;;;;;;;7.67;100.00;99334.07;105759;1254;70110;-75
2024/02/14 02:50:07;;;;;;;6.80;5.90;;;;;;;7.65;100.00;99338.86;105893;1253;72740;-75
2024/02/14 02:52:35;;;;;;;8.40;6.50;;;;;;;7.68;100.00;99339.46;105895;1253;60559;-74
2024/02/14 02:55:01;;;;;;;8.40;6.00;;;;;;;7.66;100.00;99336.05;105892;1257;60424;-74
2024/02/14 02:57:29;;;;;;;8.20;5.90;;;;;;;7.63;100.00;99332.30;105489;1257;73629;-73
2024/02/14 02:59:57;;;;;;;10.30;6.70;;;;;;;7.62;100.00;99337.25;105650;1253;70859;-74
2024/02/14 03:02:25;;;;;;;8.20;7.10;;;;;;;7.63;100.00;99337.26;105951;1253;72760;-74
2024/02/14 03:04:52;;;;;;;8.40;6.70;;;;;;;7.65;100.00;99339.91;105809;1253;61751;-73
2024/02/14 03:07:20;;;;;;;8.20;7.20;;;;;;;7.63;99.95;99344.54;105892;1253;60568;-74
2024/02/14 03:09:47;;;;;;;16.10;7.50;;;;;;;7.56;100.00;99350.34;105974;1257;73043;-74
2024/02/14 03:12:16;;;;;;;9.40;7.80;;;;;;;7.58;100.00;99353.30;105824;1253;60567;-74
2024/02/14 03:14:43;;;;;;;9.30;7.80;;;;;;;7.61;100.00;99351.42;105831;1253;72526;-74
2024/02/14 03:17:11;;;;;;;16.70;11.00;;;;;;;7.62;100.00;99350.27;106017;1253;60448;-74
2024/02/14 03:19:38;;;;;;;34.20;23.30;;;;;;;7.58;100.00;99350.02;106712;1254;60371;-76
2024/02/14 03:22:08;;;;;;;11.00;9.40;;;;;;;7.48;99.94;99353.81;107884;1254;73271;-72
2024/02/14 03:24:36;;;;;;;8.90;7.40;;;;;;;7.44;99.96;99354.75;106803;1253;68996;-75
2024/02/14 03:27:06;;;;;;;10.30;6.90;;;;;;;7.42;99.96;99353.42;105961;1252;72813;-75
2024/02/14 03:29:35;;;;;;;7.80;6.20;;;;;;;7.41;100.00;99349.45;105704;1258;60461;-75
2024/02/14 03:32:04;;;;;;;12.10;8.10;;;;;;;7.41;100.00;99348.06;105862;1257;60432;-74
2024/02/14 03:34:35;;;;;;;6.80;6.10;;;;;;;7.41;100.00;99350.90;105901;1253;72950;-72
2024/02/14 03:37:02;;;;;;;11.40;7.00;;;;;;;7.38;100.00;99353.12;105917;1253;70504;-73
2024/02/14 03:39:30;;;;;;;7.00;5.60;;;;;;;7.34;100.00;99356.85;105988;1253;72729;-74
2024/02/14 03:41:57;;;;;;;9.50;6.10;;;;;;;7.35;100.00;99361.94;105796;1254;62119;-75
2024/02/14 03:44:24;;;;;;;12.00;6.40;;;;;;;7.36;100.00;99366.20;105812;1257;60518;-75
2024/02/14 03:46:50;;;;;;;8.10;6.80;;;;;;;7.39;100.00;99368.86;105876;1253;60482;-74
2024/02/14 03:49:17;;;;;;;7.30;4.80;;;;;;;7.43;100.00;99368.81;105820;1253;70154;-73
2024/02/14 03:51:43;;;;;;;6.20;5.30;;;;;;;7.43;100.00;99368.66;105785;1257;72724;-74
2024/02/14 03:54:11;;;;;;;5.90;5.20;;;;;;;7.41;100.00;99372.17;105898;1253;61910;-75
2024/02/14 03:56:38;;;;;;;9.20;5.70;;;;;;;7.43;100.00;99373.41;105742;1253;60525;-75
2024/02/14 03:59:05;;;;;;;8.90;6.30;;;;;;;7.44;100.00;99368.50;105839;1257;72387;-74
2024/02/14 04:01:32;;;;;;;7.20;5.50;;;;;;;7.45;100.00;99363.34;105845;1253;70363;-76
2024/02/14 04:03:59;;;;;;;6.20;5.50;;;;;;;7.39;100.00;99367.41;105873;1257;72637;-75
2024/02/14 04:06:26;;;;;;;5.10;4.60;;;;;;;7.31;99.71;99380.28;105839;1253;61974;-75
2024/02/14 04:08:53;;;;;;;6.50;5.30;;;;;;;7.19;99.71;99384.95;105955;1253;60566;-75
2024/02/14 04:11:20;;;;;;;8.90;5.80;;;;;;;7.14;100.00;99390.93;105856;1253;72401;-75
2024/02/14 04:13:47;;;;;;;6.90;5.30;;;;;;;7.07;100.00;99389.67;105847;1259;67817;-76
2024/02/14 04:16:13;;;;;;;7.10;5.10;;;;;;;7.08;100.00;99383.93;105935;1253;71552;-76
2024/02/14 04:18:40;;;;;;;5.80;5.20;;;;;;;7.13;100.00;99389.24;105882;1252;62330;-76
2024/02/14 04:21:08;;;;;;;7.60;4.80;;;;;;;7.09;100.00;99393.84;107936;1253;60351;-75
2024/02/14 04:23:35;;;;;;;8.50;5.70;;;;;;;7.09;100.00;99399.19;107857;1253;72429;-74
2024/02/14 04:26:01;;;;;;;7.30;4.70;;;;;;;7.07;100.00;99401.66;106903;1253;69133;-76
2024/02/14 04:28:28;;;;;;;7.60;5.00;;;;;;;7.06;100.00;99406.55;105979;1258;71588;-73
2024/02/14 04:30:56;;;;;;;11.80;9.80;;;;;;;7.05;100.00;99408.20;105900;1257;60449;-75
2024/02/14 04:33:24;;;;;;;8.30;6.70;;;;;;;7.03;99.97;99415.48;105903;1253;60470;-74
2024/02/14 04:35:50;;;;;;;8.50;6.10;;;;;;;7.00;99.78;99420.17;105895;1257;73752;-72
2024/02/14 04:38:19;;;;;;;8.10;5.90;;;;;;;6.98;99.96;99419.30;105870;1253;70643;-74
2024/02/14 04:40:46;;;;;;;5.80;4.60;;;;;;;7.00;99.96;99423.16;105886;1257;72723;-76
2024/02/14 04:43:12;;;;;;;6.50;5.40;;;;;;;6.98;99.99;99424.36;105890;1253;60547;-74
2024/02/14 04:45:39;;;;;;;7.00;5.60;;;;;;;6.97;99.60;99430.48;105907;1257;60413;-75
2024/02/14 04:48:07;;;;;;;7.00;6.10;;;;;;;6.93;99.83;99432.48;105784;1253;71898;-76
2024/02/14 04:50:34;;;;;;;7.00;5.70;;;;;;;6.92;99.91;99433.31;105900;1257;70261;-75
2024/02/14 04:53:01;;;;;;;8.40;5.00;;;;;;;6.97;100.00;99433.16;105717;1253;72472;-74
2024/02/14 04:55:28;;;;;;;7.20;5.60;;;;;;;7.01;100.00;99436.27;105760;1254;60449;-76
2024/02/14 04:57:55;;;;;;;5.80;4.70;;;;;;;6.97;99.75;99435.94;105937;1253;60886;-75
2024/02/14 05:00:22;;;;;;;9.00;4.60;;;;;;;6.92;99.28;99439.16;105857;1257;73614;-75
2024/02/14 05:02:49;;;;;;;5.90;4.70;;;;;;;6.92;99.54;99441.58;105848;1255;70225;-75
2024/02/14 05:05:16;;;;;;;6.40;4.90;;;;;;;6.88;99.50;99444.35;105788;1258;72605;-75
2024/02/14 05:07:43;;;;;;;6.50;5.00;;;;;;;6.91;99.89;99446.45;105780;1254;60549;-75
2024/02/14 05:10:09;;;;;;;8.50;5.80;;;;;;;6.94;99.94;99447.20;105702;1256;60554;-75
2024/02/14 05:12:36;;;;;;;6.80;5.20;;;;;;;6.95;99.71;99447.73;105612;1254;73844;-76
2024/02/14 05:15:04;;;;;;;7.90;5.20;;;;;;;6.96;99.30;99454.91;105887;1253;70200;-76
2024/02/14 05:17:31;;;;;;;5.10;4.20;;;;;;;6.93;98.98;99454.33;105917;1258;72458;-73
2024/02/14 05:19:58;;;;;;;5.40;4.70;;;;;;;6.88;98.25;99459.04;106874;1253;61809;-74
2024/02/14 05:22:24;;;;;;;6.60;4.90;;;;;;;6.77;97.40;99465.70;108422;1253;60322;-75
2024/02/14 05:24:51;;;;;;;7.00;5.40;;;;;;;6.65;97.61;99469.14;107259;1259;72589;-76
2024/02/14 05:27:17;;;;;;;5.30;4.70;;;;;;;6.67;98.61;99468.13;105881;1253;60649;-76
2024/02/14 05:29:44;;;;;;;7.50;4.60;;;;;;;6.67;98.64;99473.23;105894;1256;72480;-75
2024/02/14 05:32:11;;;;;;;4.70;4.10;;;;;;;6.69;98.65;99478.31;105878;1253;60674;-75
2024/02/14 05:34:37;;;;;;;6.90;4.90;;;;;;;6.71;98.29;99481.34;105924;1253;61358;-75
2024/02/14 05:37:05;;;;;;;7.60;5.30;;;;;;;6.68;98.57;99476.27;105911;1257;73527;-76
2024/02/14 05:39:32;;;;;;;6.40;5.00;;;;;;;6.64;98.01;99474.60;105834;1253;70332;-74
2024/02/14 05:41:58;;;;;;;7.50;6.00;;;;;;;6.58;97.79;99469.73;105965;1253;72793;-76
2024/02/14 05:44:27;;;;;;;7.70;5.50;;;;;;;6.53;98.28;99467.86;105826;1253;60551;-75
2024/02/14 05:46:53;;;;;;;9.90;7.60;;;;;;;6.53;98.13;99471.77;105941;1257;60422;-75
2024/02/14 05:49:21;;;;;;;7.60;5.80;;;;;;;6.48;97.98;99476.09;105806;1253;73903;-73
2024/02/14 05:51:48;;;;;;;6.40;4.80;;;;;;;6.42;98.63;99478.77;105973;1253;69068;-75
2024/02/14 05:54:15;;;;;;;5.10;4.50;;;;;;;6.43;99.03;99478.55;105855;1256;72762;-76
2024/02/14 05:56:41;;;;;;;5.70;4.80;;;;;;;6.45;99.43;99487.30;105800;1257;60439;-75
2024/02/14 05:59:09;;;;;;;6.50;4.60;;;;;;;6.43;99.67;99485.84;105850;1257;60442;-76
2024/02/14 06:01:36;;;;;;;8.20;4.70;;;;;;;6.44;99.31;99484.52;106097;1254;73693;-78
2024/02/14 06:04:03;;;;;;;7.70;4.80;;;;;;;6.44;98.92;99484.70;105880;1256;70265;-79
2024/02/14 06:06:30;;;;;;;6.50;4.90;;;;;;;6.40;98.65;99487.73;105893;1253;72609;-78
2024/02/14 06:08:57;;;;;;;5.70;4.80;;;;;;;6.39;98.26;99500.38;105901;1253;60516;-78
2024/02/14 06:11:24;;;;;;;7.40;5.20;;;;;;;6.37;98.31;99506.92;105928;1253;60472;-78
2024/02/14 06:13:50;;;;;;;6.30;4.60;;;;;;;6.35;98.38;99510.63;105972;1256;74188;-78
2024/02/14 06:16:17;;;;;;;10.20;5.70;;;;;;;6.36;98.72;99515.04;105919;1253;69182;-78
2024/02/14 06:18:45;;;;;;;6.80;5.70;;;;;;;6.38;98.84;99511.37;106989;1253;72577;-77
2024/02/14 06:21:13;;;;;;;8.60;6.00;;;;;;;6.38;98.46;99518.20;108262;1253;60225;-76
2024/02/14 06:23:40;;;;;;;7.80;5.50;;;;;;;6.37;98.52;99524.09;108178;1253;59163;-77
2024/02/14 06:26:06;;;;;;;6.20;5.10;;;;;;;6.38;98.34;99524.73;107230;1256;72406;-78
2024/02/14 06:28:33;;;;;;;10.90;5.30;;;;;;;6.40;97.96;99531.95;106791;1254;70260;-76
2024/02/14 06:31:00;;;;;;;7.40;5.20;;;;;;;6.36;97.49;99536.34;107466;1255;72613;-81
2024/02/14 06:33:27;;;;;;;7.60;5.30;;;;;;;6.35;97.54;99542.13;108825;1253;59228;-80
2024/02/14 06:35:54;;;;;;;7.30;5.00;;;;;;;6.39;97.91;99544.86;108778;1253;59034;-82
2024/02/14 06:38:21;;;;;;;7.60;5.20;;;;;;;6.38;97.41;99545.00;107108;1253;72404;-82
2024/02/14 06:40:48;;;;;;;11.60;6.00;;;;;;;6.37;97.94;99545.92;106238;1259;70135;-82
2024/02/14 06:43:14;;;;;;;6.60;5.30;;;;;;;6.35;97.88;99545.58;106034;1258;72527;-81
2024/02/14 06:45:41;;;;;;;10.10;4.80;;;;;;;6.33;97.64;99544.95;106009;1253;60449;-79
2024/02/14 06:48:08;;;;;;;9.20;5.60;;;;;;;6.27;97.40;99545.64;105960;1253;60446;-80
2024/02/14 06:50:35;;;;;;;5.90;4.20;;;;;;;6.26;97.47;99546.14;106175;1256;72433;-81
2024/02/14 06:53:03;;;;;;;6.60;4.10;;;;;;;6.16;97.26;99544.21;106267;1253;68780;-82
2024/02/14 06:55:33;;;;;;;6.40;4.60;;;;;;;6.14;97.81;99547.23;107127;1253;72301;-85
2024/02/14 06:58:00;;;;;;;9.40;5.10;;;;;;;6.14;98.01;99546.92;108532;1257;60555;-86
2024/02/14 07:00:30;;;;;;;6.60;4.70;;;;;;;6.17;98.92;99553.95;106764;1253;60491;-86
2024/02/14 07:02:57;;;;;;;7.60;5.20;;;;;;;6.24;98.56;99557.77;106530;1253;360739;-85
2024/02/14 07:07:48;;;;;;;7.80;6.20;;;;;;;6.26;98.14;99563.84;104616;1289;601005;-85
2024/02/14 07:10:15;;;;;;;7.10;5.50;;;;;;;6.21;98.11;99565.92;106593;1269;60385;-84
2024/02/14 07:12:43;;;;;;;7.80;5.50;;;;;;;6.25;98.59;99566.77;106415;1264;59254;-87
2024/02/14 07:15:11;;;;;;;5.30;4.30;;;;;;;6.31;99.09;99565.86;106794;1257;73231;-82
2024/02/14 07:17:39;;;;;;;5.80;4.60;;;;;;;6.40;99.00;99566.57;106713;1257;68982;-85
2024/02/14 07:20:09;;;;;;;7.30;5.30;;;;;;;6.45;98.65;99568.95;108614;1258;71790;-85
2024/02/14 07:22:37;;;;;;;9.70;5.30;;;;;;;6.48;99.13;99572.13;108984;1254;58447;-86
2024/02/14 07:25:04;;;;;;;7.60;5.40;;;;;;;6.53;98.27;99574.57;109215;1253;59545;-82
2024/02/14 07:27:33;;;;;;;8.20;5.40;;;;;;;6.52;97.61;99580.25;108795;1254;70697;-83
2024/02/14 07:30:00;;;;;;;5.10;4.60;;;;;;;6.52;98.16;99579.58;107019;1257;69233;-86
2024/02/14 07:32:29;;;;;;;7.70;4.50;;;;;;;6.57;98.36;99581.99;105903;1255;71935;-82
2024/02/14 07:34:56;;;;;;;7.10;4.60;;;;;;;6.62;98.12;99582.27;106249;1262;59599;-82
2024/02/14 07:37:24;;;;;;;8.40;4.60;;;;;;;6.60;97.65;99580.02;106113;1254;59591;-83
2024/02/14 07:39:52;;;;;;;6.60;5.00;;;;;;;6.61;97.11;99578.88;106675;1254;71783;-83
2024/02/14 07:42:20;;;;;;;8.80;4.90;;;;;;;6.55;96.86;99579.27;108173;1254;69221;-84
2024/02/14 07:44:47;;;;;;;5.60;4.50;;;;;;;6.56;97.28;99581.78;106638;1256;71410;-85
2024/02/14 07:47:19;;;;;;;7.20;4.40;;;;;;;6.60;97.34;99582.23;106897;1254;59653;-84
2024/02/14 07:49:48;;;;;;;5.90;4.40;;;;;;;6.56;96.83;99580.42;106702;1257;60101;-84
2024/02/14 07:52:15;;;;;;;5.50;3.80;;;;;;;6.48;96.55;99580.59;107191;1254;72832;-89
2024/02/14 07:54:43;;;;;;;5.20;3.80;;;;;;;6.49;96.70;99581.20;109039;1251;69297;-86
2024/02/14 07:57:11;;;;;;;9.00;5.10;;;;;;;6.57;97.39;99588.52;106967;1259;72688;-82
2024/02/14 07:59:39;;;;;;;6.80;4.30;;;;;;;6.58;96.96;99588.31;107008;1257;60637;-80
2024/02/14 08:02:07;;;;;;;6.70;4.20;;;;;;;6.58;96.47;99592.14;106250;1251;60175;-85
2024/02/14 08:04:34;;;;;;;7.50;5.20;;;;;;;6.60;96.28;99594.09;106640;1254;73092;-85
2024/02/14 08:07:02;;;;;;;10.40;8.70;;;;;;;6.54;96.02;99596.95;106271;1260;69083;-83
2024/02/14 08:09:30;;;;;;;13.80;11.70;;;;;;;6.54;96.41;99601.84;106931;1254;74435;-85
2024/02/14 08:11:58;;;;;;;8.50;7.60;;;;;;;6.53;96.57;99603.39;106827;1254;60610;-83
2024/02/14 08:14:26;;;;;;;9.40;7.40;;;;;;;6.53;96.13;99605.85;107835;1253;59511;-81
2024/02/14 08:16:53;;;;;;;10.90;6.50;;;;;;;6.47;95.45;99607.41;108669;1252;71642;-84
2024/02/14 08:19:32;;;;;;;7.60;6.00;;;;;;;6.41;96.14;99603.81;109575;1253;69852;-86
2024/02/14 08:22:06;;;;;;;7.20;6.50;;;;;;;6.50;96.73;99609.42;108452;1256;70911;-80
2024/02/14 08:48:11;;;;;;;5.60;3.60;;;;;;;6.64;95.28;99648.95;107980;1270;73789;-84
2024/02/14 08:50:39;;;;;;;6.30;3.80;;;;;;;6.60;94.97;99651.52;107849;1269;71406;-84
2024/02/14 08:53:07;;;;;;;5.70;4.20;;;;;;;6.62;95.55;99648.47;107664;1271;72003;-83
2024/02/14 08:55:36;;;;;;;7.30;4.30;;;;;;;6.66;95.48;99652.32;107571;1275;61017;-83
2024/02/14 08:58:17;;;;;;;5.20;3.30;;;;;;;6.61;94.35;99653.47;107712;1271;58811;-86
2024/02/14 09:01:21;;;;;;;7.60;5.10;;;;;;;6.57;94.81;99659.08;107956;1270;74001;-88
2024/02/14 09:04:00;;;;;;;5.60;4.30;;;;;;;6.54;94.74;99654.99;108057;1271;69529;31
2024/02/14 09:10:00;;;;;;;6.00;4.60;;;;;;;6.60;94.88;99664.09;107401;1273;61332;-84
2024/02/14 09:12:34;;;;;;;8.10;4.60;;;;;;;6.65;94.65;99665.70;107230;1270;59233;-85
2024/02/14 09:15:04;;;;;;;5.00;3.40;;;;;;;6.66;94.69;99669.54;105874;1270;74376;-83
2024/02/14 09:17:33;;;;;;;4.90;3.50;;;;;;;6.64;94.30;99671.16;107976;1270;69437;-84
2024/02/14 09:20:01;;;;;;;8.90;6.50;;;;;;;6.66;94.27;99671.84;108080;1269;71365;-83
2024/02/14 09:22:29;;;;;;;7.10;5.40;;;;;;;6.61;94.28;99669.96;107331;1271;62691;-83
2024/02/14 09:24:57;;;;;;;7.80;6.10;;;;;;;6.61;94.66;99670.23;106951;1270;61199;-83
2024/02/14 09:27:25;;;;;;;6.50;4.20;;;;;;;6.63;95.08;99674.75;106964;1270;73241;-84
2024/02/14 09:29:53;;;;;;;6.10;3.90;;;;;;;6.62;95.03;99675.55;106136;1271;71443;-84
2024/02/14 09:32:21;;;;;;;10.30;6.20;;;;;;;6.60;94.49;99674.54;107417;1273;72834;-83
2024/02/14 09:34:50;;;;;;;9.80;7.80;;;;;;;6.57;94.03;99680.61;105478;1277;59348;-84
2024/02/14 09:37:18;;;;;;;10.20;8.90;;;;;;;6.54;94.60;99683.37;105162;1270;59811;-84
2024/02/14 09:39:46;;;;;;;9.30;8.10;;;;;;;6.58;94.99;99686.80;105350;1276;75757;-82
2024/02/14 09:42:15;;;;;;;9.60;7.60;;;;;;;6.64;94.83;99691.34;104938;1271;70888;-83
2024/02/14 09:44:42;;;;;;;8.90;6.70;;;;;;;6.58;94.02;99690.39;105142;1270;73171;-86
2024/02/14 09:47:11;;;;;;;7.90;5.80;;;;;;;6.52;94.84;99693.05;106083;1270;62763;-88
2024/02/14 09:49:40;;;;;;;6.30;5.20;;;;;;;6.51;95.02;99691.87;107851;1269;61167;-87
2024/02/14 09:52:09;;;;;;;5.90;5.30;;;;;;;6.53;94.88;99695.20;106235;1270;73764;-84
2024/02/14 09:54:38;;;;;;;7.00;5.20;;;;;;;6.48;94.26;99692.80;105607;1272;70310;-80
2024/02/14 09:57:07;;;;;;;6.20;5.00;;;;;;;6.45;94.10;99691.91;104977;1276;73591;-80
2024/02/14 09:59:35;;;;;;;7.30;5.70;;;;;;;6.36;94.27;99690.77;105251;1270;60375;-83
2024/02/14 10:02:03;;;;;;;7.80;6.10;;;;;;;6.39;95.13;99694.07;105578;1270;60106;-84
2024/02/14 10:04:30;;;;;;;5.90;5.10;;;;;;;6.44;94.95;99693.06;105512;1269;71841;-84
2024/02/14 10:06:58;;;;;;;5.80;4.20;;;;;;;6.41;95.04;99696.85;106627;1270;68746;-83
2024/02/14 10:09:26;;;;;;;6.20;4.20;;;;;;;6.43;95.40;99697.70;106747;1270;70763;-83
2024/02/14 10:11:54;;;;;;;6.90;3.60;;;;;;;6.43;95.21;99697.53;106275;1272;59687;-81
2024/02/14 10:14:23;;;;;;;4.90;3.90;;;;;;;6.42;95.41;99698.45;105250;1270;59234;-81
2024/02/14 10:16:51;;;;;;;6.40;4.00;;;;;;;6.48;95.38;99701.08;106750;1273;75259;-77
2024/02/14 10:19:18;;;;;;;6.10;4.00;;;;;;;6.49;94.95;99699.30;107320;1269;71573;-79
2024/02/14 10:22:00;;;;;;;7.40;3.60;;;;;;;6.44;94.72;99697.76;105499;1270;74940;-81
2024/02/14 10:24:28;;;;;;;5.70;3.90;;;;;;;6.44;94.78;99700.91;105100;1271;62959;-79
2024/02/14 10:26:57;;;;;;;7.30;3.90;;;;;;;6.43;94.40;99700.50;105180;1276;60761;-80
2024/02/14 10:29:26;;;;;;;6.60;4.50;;;;;;;6.39;94.63;99696.12;106116;1270;73007;-80
2024/02/14 10:31:56;;;;;;;7.70;4.80;;;;;;;6.41;94.94;99695.60;108085;1269;71131;-82
2024/02/14 10:34:24;;;;;;;6.90;4.10;;;;;;;6.40;94.58;99693.06;107992;1269;71633;-80
2024/02/14 10:36:53;;;;;;;4.30;3.00;;;;;;;6.42;94.77;99693.23;107252;1270;59351;-84
2024/02/14 10:39:21;;;;;;;6.20;3.70;;;;;;;6.42;94.78;99697.25;107071;1270;58762;-84
2024/02/14 10:41:50;;;;;;;8.80;4.80;;;;;;;6.44;95.03;99701.86;106622;1270;71710;-82
2024/02/14 10:44:18;;;;;;;7.30;4.40;;;;;;;6.40;94.45;99701.17;106213;1276;68977;-82
2024/02/14 10:46:46;;;;;;;6.20;3.80;;;;;;;6.33;93.76;99703.55;106365;1272;74457;-81
2024/02/14 10:49:15;;;;;;;12.00;5.10;;;;;;;6.27;93.50;99705.14;106590;1274;60649;-82
2024/02/14 10:51:43;;;;;;;9.10;5.50;;;;;;;6.23;94.01;99702.88;106307;1276;59663;-83
2024/02/14 10:54:11;;;;;;;8.90;4.30;;;;;;;6.21;94.46;99703.77;105930;1274;73533;-84
2024/02/14 10:56:42;;;;;;;8.00;5.20;;;;;;;6.20;94.17;99703.21;105564;1270;69421;-83
2024/02/14 10:59:11;;;;;;;8.00;5.50;;;;;;;6.18;94.35;99704.41;106133;1271;75019;-83
2024/02/14 11:01:39;;;;;;;7.90;4.60;;;;;;;6.19;94.84;99700.45;106007;1269;62816;-86
2024/02/14 11:04:07;;;;;;;6.70;4.40;;;;;;;6.22;94.44;99696.14;105657;1275;59612;-87
2024/02/14 11:06:46;;;;;;;7.50;4.30;;;;;;;6.18;94.01;99697.45;106156;1270;73991;-87
2024/02/14 11:09:38;;;;;;;9.80;7.30;;;;;;;6.12;94.11;99697.39;106288;1276;71297;-90
2024/02/14 11:12:10;;;;;;;6.60;4.90;;;;;;;6.07;94.51;99701.39;105996;1272;73685;-86
2024/02/14 11:14:42;;;;;;;8.20;5.90;;;;;;;6.08;94.99;99698.06;106678;1270;62866;-93
2024/02/14 11:17:26;;;;;;;7.40;5.30;;;;;;;6.09;94.88;99698.23;107638;1270;59594;-86
2024/02/14 11:19:54;;;;;;;5.60;5.00;;;;;;;6.09;95.07;99699.63;107871;1268;71958;-77
2024/02/14 11:22:22;;;;;;;6.80;4.00;;;;;;;6.11;94.84;99703.85;105974;1275;69163;-78
2024/02/14 11:24:50;;;;;;;4.60;3.50;;;;;;;6.05;94.27;99713.69;104930;1273;72030;-76
2024/02/14 11:27:20;;;;;;;6.80;3.80;;;;;;;5.98;94.13;99719.74;104856;1270;62029;-76
2024/02/14 11:30:03;;;;;;;6.00;3.80;;;;;;;5.96;94.88;99724.91;104732;1270;60543;-76
2024/02/14 11:32:31;;;;;;;4.60;3.10;;;;;;;5.99;96.23;99727.38;104717;1272;74317;-76
2024/02/14 11:34:59;;;;;;;6.20;3.60;;;;;;;6.07;96.23;99721.55;104749;1276;69225;-77
2024/02/14 11:37:28;;;;;;;5.50;4.10;;;;;;;6.11;95.89;99724.21;104963;1270;75004;-76
2024/02/14 11:39:57;;;;;;;4.50;3.00;;;;;;;6.13;95.72;99724.61;104643;1277;60459;-77
2024/02/14 11:42:25;;;;;;;4.80;3.30;;;;;;;6.12;95.74;99724.67;104766;1270;61039;-79
2024/02/14 11:44:56;;;;;;;6.00;3.20;;;;;;;6.11;95.09;99729.70;104914;1270;72723;-76
2024/02/14 11:47:24;;;;;;;5.50;4.00;;;;;;;6.02;94.13;99731.71;105385;1271;70730;-79
2024/02/14 11:49:52;;;;;;;5.70;3.20;;;;;;;5.93;93.79;99732.02;106595;1270;73781;-79
2024/02/14 11:52:20;;;;;;;7.70;4.00;;;;;;;5.87;94.33;99730.54;107253;1270;61208;-78
2024/02/14 11:54:50;;;;;;;4.20;3.40;;;;;;;5.87;94.90;99731.98;106768;1273;61734;-77
2024/02/14 11:57:19;;;;;;;3.70;2.90;;;;;;;5.84;94.79;99736.63;106411;1271;74847;-77
2024/02/14 11:59:50;;;;;;;5.80;3.10;;;;;;;5.91;94.85;99739.39;105278;1276;70934;-76
2024/02/14 12:02:19;;;;;;;4.00;2.90;;;;;;;6.00;95.00;99740.34;106104;1272;73177;-76